Time;durP1;ratioP1;P1;durP2;ratioP2;P2;SDS_P1;SDS_P2;PMS_P1;PMS_P2;Temp;Humidity;BMP_temperature;BMP_pressure;BME280_temperature;BME280_humidity;BME280_pressure;Samples;Min_cycle;Max_cycle;Signal;HPM_P1;HPM_P2
2022/01/08 00:01:11;;;;;;;3.70;2.85;;;1.60;99.90;;;;;;5063759;28;20048;-51
2022/01/08 00:03:39;;;;;;;4.10;3.03;;;1.60;99.90;;;;;;5080862;28;20055;-57
2022/01/08 00:06:06;;;;;;;4.20;2.75;;;1.60;99.90;;;;;;5079850;28;20058;-57
2022/01/08 00:08:33;;;;;;;4.05;3.20;;;1.60;99.90;;;;;;5079993;28;20139;-57
2022/01/08 00:11:00;;;;;;;4.55;3.03;;;1.60;99.90;;;;;;5081680;28;20051;-57
2022/01/08 00:13:26;;;;;;;3.83;2.60;;;1.50;99.90;;;;;;5078551;28;20163;-55
2022/01/08 00:15:53;;;;;;;3.50;2.40;;;1.50;99.90;;;;;;5081978;28;20147;-56
2022/01/08 00:18:20;;;;;;;4.32;2.50;;;1.50;99.90;;;;;;5081226;28;20048;-57
2022/01/08 00:20:46;;;;;;;4.10;2.97;;;1.50;99.90;;;;;;5081359;28;20127;-58
2022/01/08 00:23:13;;;;;;;2.70;2.13;;;1.60;99.90;;;;;;5081724;28;20143;-55
2022/01/08 00:25:40;;;;;;;2.92;2.42;;;1.60;99.90;;;;;;5080938;28;20044;-55
2022/01/08 00:28:07;;;;;;;3.40;2.63;;;1.60;99.90;;;;;;5081648;28;20139;-57
2022/01/08 00:30:34;;;;;;;4.30;3.17;;;1.60;99.90;;;;;;5079896;28;20044;-56
2022/01/08 00:33:01;;;;;;;4.15;2.90;;;1.60;99.90;;;;;;5081731;28;20108;-56
2022/01/08 00:35:28;;;;;;;4.07;3.13;;;1.60;99.90;;;;;;5080961;28;20148;-56
2022/01/08 00:37:55;;;;;;;3.15;2.60;;;1.60;99.90;;;;;;5081237;28;20052;-55
2022/01/08 00:40:23;;;;;;;4.20;2.85;;;1.70;99.90;;;;;;5080623;28;20060;-55
2022/01/08 00:42:50;;;;;;;3.60;2.55;;;1.70;99.90;;;;;;5080394;28;20345;-56
2022/01/08 00:45:18;;;;;;;3.38;2.50;;;1.70;99.90;;;;;;5079490;28;20556;-58
2022/01/08 00:47:45;;;;;;;3.28;2.53;;;1.70;99.90;;;;;;5081485;28;20167;-54
2022/01/08 00:50:12;;;;;;;3.72;2.60;;;1.70;99.90;;;;;;5079897;28;20051;-57
2022/01/08 00:52:40;;;;;;;3.47;2.63;;;1.80;99.90;;;;;;5080791;28;20128;-56
2022/01/08 00:55:08;;;;;;;3.47;2.17;;;1.80;99.90;;;;;;5078853;28;20131;-57
2022/01/08 00:57:36;;;;;;;3.40;2.50;;;1.80;99.90;;;;;;5079911;28;20079;-57
2022/01/08 01:00:07;;;;;;;4.65;2.42;;;1.80;99.90;;;;;;5078956;28;20441;-57
2022/01/08 01:02:37;;;;;;;3.17;1.98;;;1.90;99.90;;;;;;5080201;28;20530;-56
2022/01/08 01:05:05;;;;;;;2.95;1.98;;;1.80;99.90;;;;;;5078055;28;20101;-56
2022/01/08 01:07:32;;;;;;;3.97;2.72;;;1.90;99.90;;;;;;5080660;28;20143;-58
2022/01/08 01:09:59;;;;;;;2.95;2.30;;;1.80;99.90;;;;;;5080071;28;20047;-57
2022/01/08 01:12:26;;;;;;;3.40;2.10;;;1.80;99.90;;;;;;5079276;28;20052;-56
2022/01/08 01:15:06;;;;;;;2.72;2.00;;;1.80;99.90;;;;;;5078284;28;20166;-58
2022/01/08 01:17:33;;;;;;;2.45;1.75;;;1.90;99.90;;;;;;5080584;28;20562;-58
2022/01/08 01:20:02;;;;;;;3.47;2.13;;;1.90;99.90;;;;;;5079557;28;20044;-57
2022/01/08 01:22:39;;;;;;;2.88;2.13;;;1.90;99.90;;;;;;5080149;28;20094;-53
2022/01/08 01:25:08;;;;;;;2.67;1.77;;;2.00;99.90;;;;;;5080349;28;20409;-55
2022/01/08 01:30:13;;;;;;;3.30;1.80;;;2.00;99.90;;;;;;5078828;28;20135;-55
2022/01/08 01:42:15;;;;;;;2.63;1.77;;;2.10;99.90;;;;;;5079854;28;20047;-57
2022/01/08 01:48:50;;;;;;;3.05;1.77;;;2.20;99.90;;;;;;5079968;28;20126;-53
2022/01/08 01:51:20;;;;;;;2.22;1.45;;;2.30;99.90;;;;;;5081700;28;20123;-56
2022/01/08 01:53:47;;;;;;;2.83;1.65;;;2.30;99.90;;;;;;5081253;28;20084;-56
2022/01/08 01:56:15;;;;;;;1.73;1.58;;;2.30;99.90;;;;;;5080283;28;20066;-56
2022/01/08 01:58:42;;;;;;;1.92;1.38;;;2.30;99.90;;;;;;5080188;28;20416;-55
2022/01/08 02:01:09;;;;;;;1.98;1.40;;;2.30;99.90;;;;;;5080680;28;20040;-55
2022/01/08 02:03:36;;;;;;;1.70;1.38;;;2.30;99.90;;;;;;5080738;28;20076;-58
2022/01/08 02:06:03;;;;;;;1.58;1.40;;;2.30;99.90;;;;;;5082357;28;20054;-54
2022/01/08 02:08:30;;;;;;;2.20;1.30;;;2.30;99.90;;;;;;5081347;28;20087;-55
2022/01/08 02:10:57;;;;;;;1.70;1.20;;;2.30;99.90;;;;;;5081979;28;20131;-55
2022/01/08 02:13:27;;;;;;;2.85;1.90;;;2.30;99.90;;;;;;5078074;28;20047;-57
2022/01/08 02:15:55;;;;;;;1.98;1.30;;;2.40;99.90;;;;;;5078237;28;20098;-55
2022/01/08 02:18:23;;;;;;;2.15;1.70;;;2.40;99.90;;;;;;5079314;28;20131;-57
2022/01/08 02:20:50;;;;;;;1.70;1.35;;;2.40;99.90;;;;;;5081469;28;20142;-56
2022/01/08 02:23:16;;;;;;;2.78;1.85;;;2.40;99.90;;;;;;5081573;28;20127;-52
2022/01/08 02:25:43;;;;;;;2.53;1.40;;;2.50;99.90;;;;;;5080765;28;20519;-55
2022/01/08 02:28:10;;;;;;;2.03;1.58;;;2.50;99.90;;;;;;5079443;28;20044;-57
2022/01/08 02:30:36;;;;;;;2.10;1.20;;;2.60;99.90;;;;;;5080322;28;20144;-57
2022/01/08 02:33:03;;;;;;;2.40;1.10;;;2.60;99.90;;;;;;5077960;28;20102;-56
2022/01/08 02:35:30;;;;;;;2.10;1.25;;;2.70;99.90;;;;;;5062636;28;20095;-54
2022/01/08 02:37:57;;;;;;;1.50;0.98;;;2.70;99.90;;;;;;5062962;28;20076;-57
2022/01/08 02:40:24;;;;;;;1.58;1.13;;;2.80;99.90;;;;;;5063070;28;20131;-54
2022/01/08 02:42:53;;;;;;;4.03;1.65;;;2.80;99.90;;;;;;5082010;28;20131;-56
2022/01/08 02:45:21;;;;;;;2.22;0.82;;;2.90;99.90;;;;;;5082446;28;20128;-57
2022/01/08 02:47:48;;;;;;;2.63;1.25;;;2.90;99.90;;;;;;5084051;28;20098;-56
2022/01/08 02:50:15;;;;;;;2.85;1.45;;;2.90;99.90;;;;;;5086411;28;20075;-55
2022/01/08 02:52:43;;;;;;;1.58;0.95;;;3.00;99.90;;;;;;5087806;28;20425;-56
2022/01/08 02:55:10;;;;;;;2.00;1.08;;;3.00;99.90;;;;;;5087244;28;20135;-56
2022/01/08 02:57:37;;;;;;;2.13;1.25;;;3.00;99.90;;;;;;5086928;28;20095;-55
2022/01/08 03:00:04;;;;;;;2.00;1.33;;;3.00;99.90;;;;;;5085651;28;20132;-56
2022/01/08 03:02:31;;;;;;;2.75;0.90;;;3.00;99.90;;;;;;5087020;28;20961;-57
2022/01/08 03:05:03;;;;;;;1.83;1.08;;;3.00;99.90;;;;;;5087066;28;20056;-58
2022/01/08 03:07:30;;;;;;;1.63;0.93;;;3.10;99.90;;;;;;5087348;28;20106;-57
2022/01/08 03:09:57;;;;;;;1.05;0.93;;;3.00;99.90;;;;;;5086673;28;20143;-57
2022/01/08 03:12:25;;;;;;;2.35;1.33;;;3.00;99.90;;;;;;5086235;28;20080;-57
2022/01/08 03:14:52;;;;;;;1.70;1.10;;;3.10;99.90;;;;;;5085402;28;20687;-57
2022/01/08 03:17:19;;;;;;;1.20;1.00;;;3.10;99.90;;;;;;5086648;28;20154;-58
2022/01/08 03:19:46;;;;;;;1.55;1.10;;;3.10;99.90;;;;;;5086111;28;20070;-57
2022/01/08 03:22:12;;;;;;;2.03;1.08;;;3.10;99.90;;;;;;5086797;28;20532;-58
2022/01/08 03:24:39;;;;;;;1.77;1.08;;;3.20;99.90;;;;;;5068451;28;20468;-54
2022/01/08 03:27:07;;;;;;;1.42;1.10;;;3.20;99.90;;;;;;5086948;28;20116;-56
2022/01/08 03:29:33;;;;;;;1.42;0.90;;;3.20;99.90;;;;;;5085083;28;20084;-56
2022/01/08 03:32:00;;;;;;;1.60;1.00;;;3.20;99.90;;;;;;5086512;28;20128;-57
2022/01/08 03:34:27;;;;;;;1.48;1.00;;;3.20;99.90;;;;;;5085580;28;20388;-56
2022/01/08 03:36:54;;;;;;;2.15;1.08;;;3.20;99.90;;;;;;5086519;28;20083;-56
2022/01/08 03:39:22;;;;;;;3.20;1.27;;;3.20;99.90;;;;;;5086185;28;20151;-57
2022/01/08 03:41:48;;;;;;;1.58;1.13;;;3.20;99.90;;;;;;5085775;28;20135;-57
2022/01/08 03:44:15;;;;;;;2.53;0.98;;;3.20;99.90;;;;;;5083045;28;20090;-56
2022/01/08 03:46:42;;;;;;;1.30;1.10;;;3.20;99.90;;;;;;5085219;28;20513;-55
2022/01/08 03:49:27;;;;;;;2.78;1.30;;;3.30;99.90;;;;;;5081499;28;20751;-56
2022/01/08 03:51:55;;;;;;;2.55;1.25;;;3.30;99.90;;;;;;5077337;28;20146;-55
2022/01/08 03:54:22;;;;;;;1.80;1.23;;;3.30;99.90;;;;;;5083980;28;20139;-57
2022/01/08 03:56:49;;;;;;;1.83;1.05;;;3.30;99.90;;;;;;5084490;28;20192;-57
2022/01/08 03:59:16;;;;;;;2.03;1.23;;;3.40;99.90;;;;;;5082556;28;20089;-54
2022/01/08 04:01:43;;;;;;;2.85;1.15;;;3.40;99.90;;;;;;5084112;28;20090;-57
2022/01/08 04:04:09;;;;;;;2.40;1.00;;;3.40;99.90;;;;;;5083657;28;20095;-58
2022/01/08 04:06:36;;;;;;;2.90;1.25;;;3.50;99.90;;;;;;5083774;28;20491;-57
2022/01/08 04:09:03;;;;;;;2.35;1.10;;;3.50;99.90;;;;;;5084467;28;20497;-57
2022/01/08 04:11:30;;;;;;;1.83;1.13;;;3.50;99.90;;;;;;5084046;28;20141;-57
2022/01/08 04:13:57;;;;;;;2.63;1.13;;;3.60;99.90;;;;;;5082975;28;20637;-57
2022/01/08 04:16:30;;;;;;;2.17;1.13;;;3.60;99.90;;;;;;5083684;28;20076;-58
2022/01/08 04:18:57;;;;;;;1.92;1.00;;;3.60;99.90;;;;;;5083005;28;20131;-57
2022/01/08 04:23:54;;;;;;;3.00;1.10;;;3.70;99.90;;;;;;5084112;28;20072;-58
2022/01/08 04:26:22;;;;;;;1.77;1.15;;;3.80;99.90;;;;;;5083599;28;20466;-58
2022/01/08 04:28:54;;;;;;;4.38;1.50;;;3.90;99.90;;;;;;5083231;28;20052;-57
2022/01/08 04:31:22;;;;;;;3.13;1.73;;;3.90;99.90;;;;;;5084340;28;20076;-57
2022/01/08 04:33:49;;;;;;;2.15;1.20;;;4.00;99.90;;;;;;5083744;28;20127;-58
2022/01/08 04:36:15;;;;;;;2.30;1.17;;;4.00;99.90;;;;;;5083368;28;20083;-58
2022/01/08 04:38:42;;;;;;;2.53;1.15;;;4.10;99.90;;;;;;5083838;28;20129;-58
2022/01/08 04:41:09;;;;;;;1.85;1.10;;;4.10;99.90;;;;;;5045153;28;1109289;-55
2022/01/08 04:43:37;;;;;;;2.88;1.10;;;4.10;99.90;;;;;;5083191;28;20100;-57
2022/01/08 04:46:04;;;;;;;2.45;1.00;;;4.10;99.90;;;;;;5085223;28;20048;-56
2022/01/08 04:48:31;;;;;;;1.30;0.80;;;4.10;99.90;;;;;;5084526;28;20099;-57
2022/01/08 04:50:58;;;;;;;3.08;1.02;;;4.20;99.90;;;;;;5085099;28;20138;-54
2022/01/08 04:53:25;;;;;;;1.35;0.90;;;4.20;99.90;;;;;;5084850;28;20138;-57
2022/01/08 04:55:51;;;;;;;3.58;1.35;;;4.30;99.90;;;;;;5083478;28;20155;-58
2022/01/08 04:58:18;;;;;;;2.05;0.70;;;4.30;99.90;;;;;;5084794;28;20123;-57
2022/01/08 05:00:45;;;;;;;2.25;1.00;;;4.30;99.90;;;;;;5083940;28;20055;-58
2022/01/08 05:03:11;;;;;;;1.83;1.00;;;4.30;99.90;;;;;;5085048;28;20472;-56
2022/01/08 05:05:38;;;;;;;1.55;0.80;;;4.40;99.90;;;;;;5084033;28;20048;-60
2022/01/08 05:08:05;;;;;;;1.52;0.90;;;4.40;99.90;;;;;;5084860;28;20072;-57
2022/01/08 05:10:33;;;;;;;1.65;0.75;;;4.40;99.90;;;;;;5083251;28;20098;-59
2022/01/08 05:13:04;;;;;;;1.67;0.88;;;4.50;99.90;;;;;;5084469;28;20039;-58
2022/01/08 05:15:31;;;;;;;1.80;1.10;;;4.60;99.90;;;;;;5083215;28;20053;-58
2022/01/08 05:17:58;;;;;;;2.50;1.38;;;4.70;99.90;;;;;;5084943;28;20900;-56
2022/01/08 05:20:30;;;;;;;2.40;1.13;;;4.80;99.90;;;;;;5083719;28;20146;-58
2022/01/08 05:23:00;;;;;;;3.47;1.15;;;4.90;99.90;;;;;;5084658;28;20177;-57
2022/01/08 05:25:28;;;;;;;2.83;1.08;;;4.90;99.90;;;;;;5084293;28;20511;-58
2022/01/08 05:27:55;;;;;;;2.45;0.90;;;5.00;99.90;;;;;;5084200;28;20436;-57
2022/01/08 05:30:22;;;;;;;1.58;1.00;;;5.00;99.90;;;;;;5082662;28;20078;-57
2022/01/08 05:32:49;;;;;;;2.47;0.98;;;5.00;99.90;;;;;;5083762;28;20461;-56
2022/01/08 05:35:16;;;;;;;3.28;1.20;;;5.10;99.90;;;;;;5083357;28;20138;-57
2022/01/08 05:37:43;;;;;;;2.53;1.20;;;5.20;99.90;;;;;;5083211;28;20071;-58
2022/01/08 05:40:10;;;;;;;1.10;0.60;;;5.20;99.90;;;;;;5082171;28;20242;-57
2022/01/08 05:42:37;;;;;;;2.95;0.88;;;5.20;99.90;;;;;;5083350;28;20146;-56
2022/01/08 05:45:04;;;;;;;4.38;1.13;;;5.30;99.90;;;;;;5082725;28;20365;-57
2022/01/08 05:47:33;;;;;;;2.13;0.73;;;5.40;99.90;;;;;;5084116;28;20094;-56
2022/01/08 05:50:01;;;;;;;1.73;0.82;;;5.40;99.90;;;;;;5083172;28;20649;-57
2022/01/08 05:52:27;;;;;;;4.03;1.73;;;5.40;99.90;;;;;;5082113;28;20072;-57
2022/01/08 05:54:54;;;;;;;2.85;1.60;;;5.50;99.90;;;;;;5083672;28;20162;-56
2022/01/08 05:57:21;;;;;;;2.78;1.10;;;5.50;99.90;;;;;;5065383;28;20405;-56
2022/01/08 05:59:47;;;;;;;3.20;0.82;;;5.60;99.90;;;;;;5082255;28;20044;-55
2022/01/08 06:02:14;;;;;;;3.30;0.95;;;5.60;99.90;;;;;;5080476;28;20139;-53
2022/01/08 06:04:41;;;;;;;1.67;0.90;;;5.70;99.90;;;;;;5080844;28;20565;-57
2022/01/08 06:07:09;;;;;;;4.22;1.13;;;5.70;99.90;;;;;;5082316;28;20139;-57
2022/01/08 06:09:35;;;;;;;3.05;0.98;;;5.70;99.90;;;;;;5081479;28;20051;-58
2022/01/08 06:12:02;;;;;;;3.53;1.05;;;5.80;99.90;;;;;;5081354;28;20439;-57
2022/01/08 06:14:29;;;;;;;4.97;1.48;;;5.80;99.90;;;;;;5079767;28;20171;-58
2022/01/08 06:16:56;;;;;;;3.95;1.15;;;5.90;99.90;;;;;;5081519;28;20083;-57
2022/01/08 06:19:22;;;;;;;2.90;1.30;;;5.80;99.90;;;;;;5081703;28;20241;-57
2022/01/08 06:21:49;;;;;;;3.92;1.10;;;5.90;99.90;;;;;;5081123;28;20134;-58
2022/01/08 06:24:16;;;;;;;2.22;0.93;;;5.80;99.90;;;;;;5081256;28;20140;-56
2022/01/08 06:26:43;;;;;;;4.60;1.83;;;5.90;99.90;;;;;;5081833;28;20599;-58
2022/01/08 06:29:10;;;;;;;4.57;1.35;;;5.90;99.90;;;;;;5078177;28;20108;-57
2022/01/08 06:31:36;;;;;;;4.05;1.40;;;6.00;99.90;;;;;;5081764;28;20135;-57
2022/01/08 06:34:03;;;;;;;3.47;1.20;;;6.00;99.90;;;;;;5081025;28;20543;-57
2022/01/08 06:36:30;;;;;;;2.88;1.10;;;6.00;99.90;;;;;;5081539;28;20095;-58
2022/01/08 06:38:57;;;;;;;3.70;1.45;;;6.00;99.90;;;;;;5081003;28;20181;-55
2022/01/08 06:41:24;;;;;;;2.53;1.15;;;6.00;99.90;;;;;;5081185;28;20172;-57
2022/01/08 06:43:50;;;;;;;2.22;0.98;;;6.10;99.90;;;;;;5079405;28;20419;-55
2022/01/08 06:46:17;;;;;;;2.22;1.23;;;6.00;99.90;;;;;;5081410;28;20098;-54
2022/01/08 06:48:44;;;;;;;3.88;1.13;;;6.00;99.90;;;;;;5080557;28;20126;-57
2022/01/08 06:51:11;;;;;;;3.17;1.20;;;6.10;99.90;;;;;;5081174;28;20052;-57
2022/01/08 06:53:38;;;;;;;3.80;1.55;;;6.10;99.90;;;;;;5077063;28;20614;-58
2022/01/08 06:56:05;;;;;;;3.17;1.20;;;6.10;99.90;;;;;;5077924;28;20135;-58
2022/01/08 06:58:32;;;;;;;2.92;1.10;;;6.10;99.90;;;;;;5076618;28;20127;-56
2022/01/08 07:00:59;;;;;;;3.78;1.35;;;6.10;99.90;;;;;;5077804;28;20183;-58
2022/01/08 07:03:26;;;;;;;3.60;1.17;;;6.10;99.90;;;;;;5076218;28;20534;-58
2022/01/08 07:05:52;;;;;;;2.85;1.13;;;6.10;99.90;;;;;;5078115;28;20109;-58
2022/01/08 07:08:19;;;;;;;2.83;1.02;;;6.10;99.90;;;;;;5078169;28;20468;-57
2022/01/08 07:10:46;;;;;;;5.65;1.58;;;6.10;99.90;;;;;;5076327;28;20138;-56
2022/01/08 07:13:13;;;;;;;3.65;1.27;;;6.20;99.90;;;;;;5077672;28;20106;-57
2022/01/08 07:15:39;;;;;;;5.45;1.88;;;6.30;99.90;;;;;;5076442;28;20137;-56
2022/01/08 07:18:06;;;;;;;5.82;1.48;;;6.30;99.90;;;;;;5077560;28;20044;-57
2022/01/08 07:20:33;;;;;;;4.75;1.45;;;6.40;99.90;;;;;;5077377;28;20166;-58
2022/01/08 07:22:59;;;;;;;4.43;1.92;;;6.50;99.90;;;;;;5075734;28;20174;-57
2022/01/08 07:25:26;;;;;;;3.22;1.83;;;6.60;99.90;;;;;;5077742;28;20079;-56
2022/01/08 07:27:53;;;;;;;7.78;1.85;;;6.70;99.90;;;;;;5076968;28;20139;-58
2022/01/08 07:30:20;;;;;;;6.82;1.88;;;6.70;99.90;;;;;;5077093;28;20130;-57
2022/01/08 07:32:48;;;;;;;4.25;1.83;;;6.70;99.90;;;;;;5077999;28;20555;-55
2022/01/08 07:35:15;;;;;;;7.82;1.80;;;6.70;99.90;;;;;;5079258;28;20052;-56
2022/01/08 07:37:42;;;;;;;5.15;1.55;;;6.80;99.90;;;;;;5080940;28;20056;-59
2022/01/08 07:40:10;;;;;;;4.47;1.67;;;6.80;99.90;;;;;;5080349;28;20130;-56
2022/01/08 07:42:37;;;;;;;7.32;1.58;;;6.90;99.90;;;;;;5080819;28;20121;-55
2022/01/08 07:45:04;;;;;;;3.05;1.20;;;6.90;99.90;;;;;;5080068;28;20047;-59
2022/01/08 07:47:31;;;;;;;4.85;1.70;;;6.90;99.90;;;;;;5081270;28;20137;-58
2022/01/08 07:49:58;;;;;;;3.17;1.70;;;7.00;99.90;;;;;;5081025;28;20895;-59
2022/01/08 07:52:25;;;;;;;7.20;1.67;;;7.00;99.90;;;;;;5079708;28;20123;-56
2022/01/08 07:54:51;;;;;;;6.35;1.77;;;7.00;99.90;;;;;;5081101;28;20542;-57
2022/01/08 07:57:18;;;;;;;4.25;1.65;;;7.10;99.90;;;;;;5079470;28;20439;-60
2022/01/08 07:59:45;;;;;;;6.13;1.90;;;7.10;99.90;;;;;;5080116;28;20135;-57
2022/01/08 08:02:12;;;;;;;6.90;2.05;;;7.10;99.90;;;;;;5080840;28;20080;-57
2022/01/08 08:04:39;;;;;;;5.70;1.80;;;7.20;99.90;;;;;;5080039;28;20144;-56
2022/01/08 08:07:06;;;;;;;8.82;3.33;;;7.20;99.90;;;;;;5081017;28;20466;-56
2022/01/08 08:09:33;;;;;;;6.80;2.00;;;7.20;99.90;;;;;;5078452;28;20071;-58
2022/01/08 08:11:59;;;;;;;8.98;2.25;;;7.30;99.90;;;;;;5080215;28;20142;-58
2022/01/08 08:14:26;;;;;;;5.82;2.03;;;7.30;99.90;;;;;;5078363;28;20127;-58
2022/01/08 08:16:53;;;;;;;11.43;2.33;;;7.30;99.90;;;;;;5079778;28;20086;-58
2022/01/08 08:19:20;;;;;;;6.35;2.30;;;7.40;99.90;;;;;;5077661;28;20378;-58
2022/01/08 08:21:46;;;;;;;5.50;1.70;;;7.50;99.90;;;;;;5079664;28;20144;-58
2022/01/08 08:24:14;;;;;;;7.32;2.35;;;7.50;99.90;;;;;;5080092;28;20113;-58
2022/01/08 08:26:42;;;;;;;3.88;1.77;;;7.60;99.90;;;;;;5076833;28;20067;-58
2022/01/08 08:29:09;;;;;;;5.35;1.90;;;7.60;99.90;;;;;;5079354;28;20455;-58
2022/01/08 08:31:36;;;;;;;5.47;2.00;;;7.60;99.90;;;;;;5079529;28;20128;-59
2022/01/08 08:34:08;;;;;;;7.00;2.53;;;7.60;99.90;;;;;;5076298;28;20071;-58
2022/01/08 08:36:36;;;;;;;5.25;2.40;;;7.70;99.90;;;;;;5079329;28;20048;-57
2022/01/08 08:39:03;;;;;;;7.50;2.38;;;7.70;99.90;;;;;;5080067;28;20127;-59
2022/01/08 08:41:30;;;;;;;5.65;2.47;;;7.80;99.90;;;;;;5080269;28;20044;-57
2022/01/08 08:43:57;;;;;;;3.63;1.65;;;7.80;99.90;;;;;;5078792;28;20051;-58
2022/01/08 08:46:24;;;;;;;3.65;1.77;;;7.80;99.90;;;;;;5078924;28;20083;-59
2022/01/08 08:48:53;;;;;;;6.47;2.70;;;7.90;99.90;;;;;;5079265;28;20085;-58
2022/01/08 08:51:20;;;;;;;7.18;2.15;;;7.90;99.90;;;;;;5079922;28;20052;-58
2022/01/08 08:53:46;;;;;;;8.70;1.85;;;8.00;99.90;;;;;;5078810;28;20040;-57
2022/01/08 08:56:13;;;;;;;8.40;2.17;;;8.00;99.90;;;;;;5078962;28;20720;-58
2022/01/08 08:58:40;;;;;;;8.75;2.70;;;8.00;99.90;;;;;;5077570;28;20158;-58
2022/01/08 09:01:07;;;;;;;8.32;2.20;;;8.10;99.90;;;;;;5077134;28;20052;-59
2022/01/08 09:03:34;;;;;;;7.80;2.70;;;8.20;99.90;;;;;;5077920;28;20067;-59
2022/01/08 09:06:02;;;;;;;9.65;2.40;;;8.20;99.90;;;;;;5077009;28;20101;-59
2022/01/08 09:08:29;;;;;;;6.35;2.08;;;8.30;99.90;;;;;;5077579;28;20078;-58
2022/01/08 09:10:56;;;;;;;6.80;1.90;;;8.40;99.90;;;;;;5078722;28;20507;-58
2022/01/08 09:13:25;;;;;;;6.78;2.78;;;8.40;99.90;;;;;;5078593;28;20056;-55
2022/01/08 09:15:51;;;;;;;6.68;2.45;;;8.50;99.90;;;;;;5079185;28;20174;-58
2022/01/08 09:18:18;;;;;;;7.72;2.30;;;8.50;99.90;;;;;;5079005;28;20208;-56
2022/01/08 09:20:48;;;;;;;10.95;3.17;;;8.60;99.90;;;;;;5078859;28;20666;-59
2022/01/08 09:23:15;;;;;;;8.98;3.05;;;8.60;99.90;;;;;;5078584;28;20428;-58
2022/01/08 09:25:42;;;;;;;11.48;3.08;;;8.70;99.90;;;;;;5079031;28;20253;-59
2022/01/08 09:28:09;;;;;;;10.55;3.08;;;8.70;99.90;;;;;;5078844;28;20131;-59
2022/01/08 09:30:35;;;;;;;10.07;3.20;;;8.80;99.90;;;;;;5078583;28;20121;-59
2022/01/08 09:33:02;;;;;;;7.65;3.13;;;8.80;99.90;;;;;;5078647;28;20044;-59
2022/01/08 09:35:29;;;;;;;9.63;2.22;;;8.80;99.90;;;;;;5077130;28;20058;-59
2022/01/08 09:37:56;;;;;;;8.95;2.72;;;8.90;99.90;;;;;;5079291;28;20124;-58
2022/01/08 09:40:23;;;;;;;8.05;2.03;;;8.90;99.90;;;;;;5079139;28;20442;-59
2022/01/08 09:42:50;;;;;;;8.55;2.35;;;8.90;99.90;;;;;;5077644;28;20230;-59
2022/01/08 09:45:17;;;;;;;7.63;2.17;;;8.90;99.90;;;;;;5077505;28;20052;-59
2022/01/08 09:47:44;;;;;;;11.05;2.72;;;8.90;99.90;;;;;;5078295;28;20133;-59
2022/01/08 09:50:11;;;;;;;8.07;2.17;;;9.00;99.90;;;;;;5077245;28;20654;-59
2022/01/08 09:52:37;;;;;;;7.38;1.95;;;9.00;99.90;;;;;;5078763;28;20127;-59
2022/01/08 09:55:05;;;;;;;8.00;3.03;;;9.00;99.90;;;;;;5078768;28;20087;-58
2022/01/08 09:57:32;;;;;;;9.18;2.58;;;9.10;99.90;;;;;;5077246;28;20411;-59
2022/01/08 09:59:58;;;;;;;7.55;2.00;;;9.10;99.90;;;;;;5076811;28;20059;-56
2022/01/08 10:02:25;;;;;;;5.90;2.30;;;9.20;99.90;;;;;;5077994;28;20146;-59
2022/01/08 10:04:52;;;;;;;7.55;2.33;;;9.20;99.90;;;;;;5078517;28;20052;-59
2022/01/08 10:07:24;;;;;;;8.38;2.63;;;9.20;99.90;;;;;;5078407;28;20140;-59
2022/01/08 10:10:00;;;;;;;10.25;3.42;;;9.20;99.90;;;;;;5073974;28;20040;-59
2022/01/08 10:12:38;;;;;;;9.18;2.00;;;9.20;99.90;;;;;;5076750;28;20066;-58
2022/01/08 10:17:51;;;;;;;9.45;1.90;;;9.20;99.90;;;;;;5078387;28;20075;-59
2022/01/08 10:20:28;;;;;;;6.97;2.05;;;9.20;99.90;;;;;;5076920;28;20108;-59
2022/01/08 10:23:13;;;;;;;11.75;2.45;;;9.30;99.90;;;;;;5077203;28;20320;-59
2022/01/08 10:25:42;;;;;;;8.77;1.95;;;9.20;99.90;;;;;;5076132;28;20135;-59
2022/01/08 10:28:08;;;;;;;4.32;1.60;;;9.20;99.90;;;;;;5077852;28;20115;-59
2022/01/08 10:30:35;;;;;;;6.50;1.95;;;9.20;99.90;;;;;;5076511;28;20630;-59
2022/01/08 10:33:02;;;;;;;5.15;1.52;;;9.20;99.90;;;;;;5077021;28;20134;-59
2022/01/08 10:35:49;;;;;;;4.65;1.33;;;9.20;99.90;;;;;;5076974;28;20146;-57
2022/01/08 10:38:17;;;;;;;5.18;2.00;;;9.20;99.90;;;;;;5077026;28;20602;-58
2022/01/08 10:40:43;;;;;;;4.47;1.58;;;9.20;99.90;;;;;;5078467;28;20070;-59
2022/01/08 10:43:21;;;;;;;3.97;1.33;;;9.20;99.90;;;;;;5077041;28;20134;-59
2022/01/08 10:45:48;;;;;;;3.13;1.20;;;9.20;99.90;;;;;;5078071;28;20051;-59
2022/01/08 10:48:31;;;;;;;1.70;0.68;;;9.20;99.90;;;;;;5076078;28;20040;-56
2022/01/08 10:51:10;;;;;;;3.77;1.13;;;9.30;99.90;;;;;;5077956;28;20569;-59
2022/01/08 10:54:04;;;;;;;2.83;0.85;;;9.20;99.90;;;;;;5077312;28;20324;-58
2022/01/08 10:56:36;;;;;;;3.20;0.77;;;9.30;99.90;;;;;;5060947;28;20228;-58
2022/01/08 10:59:09;;;;;;;2.83;0.80;;;9.30;99.90;;;;;;5076648;28;20767;-57
2022/01/08 11:01:48;;;;;;;3.33;1.08;;;9.30;99.90;;;;;;5078537;28;20090;-55
2022/01/08 11:04:17;;;;;;;3.42;1.20;;;9.30;99.90;;;;;;5074995;28;20087;-57
2022/01/08 11:07:02;;;;;;;3.30;0.98;;;9.40;99.90;;;;;;5077718;28;20575;-58
2022/01/08 11:09:29;;;;;;;4.55;1.30;;;9.40;99.90;;;;;;5079164;28;20155;-57
2022/01/08 11:11:58;;;;;;;3.10;1.17;;;9.40;99.90;;;;;;5080037;28;20135;-58
2022/01/08 11:17:35;;;;;;;3.65;1.27;;;9.50;99.90;;;;;;5077954;28;20364;-58
2022/01/08 11:20:09;;;;;;;4.43;1.17;;;9.50;99.90;;;;;;5079927;28;20745;-58
2022/01/08 11:22:38;;;;;;;3.80;1.17;;;9.50;99.90;;;;;;5081709;28;20135;-58
2022/01/08 11:25:07;;;;;;;3.90;1.30;;;9.50;99.90;;;;;;5078439;28;20139;-58
2022/01/08 11:28:05;;;;;;;4.15;1.00;;;9.50;99.90;;;;;;5078053;28;20443;-57
2022/01/08 11:30:34;;;;;;;4.80;1.45;;;9.60;99.90;;;;;;5080410;28;20577;-58
2022/01/08 11:33:07;;;;;;;3.97;1.20;;;9.60;99.90;;;;;;5081047;28;20127;-58
2022/01/08 11:35:40;;;;;;;5.30;1.60;;;9.60;99.90;;;;;;5081111;28;20062;-59
2022/01/08 11:38:09;;;;;;;3.47;1.27;;;9.60;99.90;;;;;;5082128;28;20127;-58
2022/01/08 11:40:37;;;;;;;4.10;1.48;;;9.60;99.90;;;;;;5079736;28;20072;-58
2022/01/08 11:43:04;;;;;;;3.92;1.35;;;9.60;99.90;;;;;;5079978;28;20499;-58
2022/01/08 11:45:36;;;;;;;4.90;1.20;;;9.70;99.90;;;;;;5077770;28;20071;-58
2022/01/08 11:48:05;;;;;;;4.15;1.13;;;9.70;99.90;;;;;;5080076;28;20055;-58
2022/01/08 11:50:32;;;;;;;4.65;2.15;;;9.70;99.90;;;;;;5080673;28;20073;-59
2022/01/08 11:53:13;;;;;;;8.35;2.45;;;9.70;99.90;;;;;;5080830;28;20052;-58
2022/01/08 11:55:40;;;;;;;3.13;1.35;;;9.70;99.90;;;;;;5078191;28;20074;-57
2022/01/08 11:58:23;;;;;;;5.15;1.38;;;9.70;99.90;;;;;;5057549;28;20152;-58
2022/01/08 12:01:11;;;;;;;3.45;1.10;;;9.70;99.90;;;;;;5078966;28;20051;-58
2022/01/08 12:03:39;;;;;;;4.20;1.20;;;9.70;99.90;;;;;;5076842;28;20167;-58
2022/01/08 12:06:23;;;;;;;2.92;1.17;;;9.70;99.90;;;;;;5078778;28;20052;-59
2022/01/08 12:08:57;;;;;;;3.20;1.25;;;9.70;99.90;;;;;;5080176;28;20488;-55
2022/01/08 12:11:24;;;;;;;4.03;1.48;;;9.70;99.90;;;;;;5080950;28;20438;-52
2022/01/08 12:13:52;;;;;;;3.30;1.30;;;9.70;99.90;;;;;;5079766;28;20090;-55
2022/01/08 12:16:39;;;;;;;2.75;1.20;;;9.70;99.90;;;;;;5080739;28;20097;-53
2022/01/08 12:19:08;;;;;;;4.45;1.65;;;9.70;99.90;;;;;;5078821;28;20134;-58
2022/01/08 12:21:38;;;;;;;3.53;1.02;;;9.70;99.90;;;;;;5079446;28;20125;-58
2022/01/08 12:24:26;;;;;;;3.22;0.80;;;9.70;99.90;;;;;;5077403;28;20554;-58
2022/01/08 12:27:17;;;;;;;3.67;1.08;;;9.70;99.90;;;;;;5076978;28;20048;-56
2022/01/08 12:29:44;;;;;;;2.03;0.80;;;9.70;99.90;;;;;;5072623;28;20163;-55
2022/01/08 12:32:34;;;;;;;2.70;1.13;;;9.70;99.90;;;;;;5077909;28;20496;-57
2022/01/08 12:35:20;;;;;;;1.85;0.85;;;9.70;99.90;;;;;;5074307;28;20051;-57
2022/01/08 12:37:54;;;;;;;1.98;0.75;;;9.70;99.90;;;;;;5077230;28;20765;-57
2022/01/08 12:40:40;;;;;;;3.22;0.88;;;9.70;99.90;;;;;;5076634;28;20126;-57
2022/01/08 12:43:34;;;;;;;2.65;1.23;;;9.70;99.90;;;;;;5075317;28;20681;-57
2022/01/08 12:46:10;;;;;;;;;;;9.60;99.90;;;;;;5069203;28;20067;-59
2022/01/08 12:48:37;;;;;;;1.38;0.52;;;9.60;99.90;;;;;;5078688;28;20014;-59
2022/01/08 12:51:05;;;;;;;1.52;0.80;;;9.70;99.90;;;;;;5078422;28;20163;-59
2022/01/08 12:53:32;;;;;;;2.20;0.90;;;9.60;99.90;;;;;;5080157;28;20574;-59
2022/01/08 12:55:59;;;;;;;3.35;1.00;;;9.60;99.90;;;;;;5080532;28;20167;-59
2022/01/08 12:58:33;;;;;;;1.77;0.90;;;9.60;99.90;;;;;;5077667;28;20127;-56
2022/01/08 13:01:01;;;;;;;2.92;1.20;;;9.60;99.90;;;;;;5079548;28;20884;-58
2022/01/08 13:03:47;;;;;;;2.92;1.10;;;9.60;99.90;;;;;;5079328;28;20081;-58
2022/01/08 13:06:14;;;;;;;3.75;1.65;;;9.60;99.90;;;;;;5062566;28;20044;-58
2022/01/08 13:08:45;;;;;;;3.40;1.67;;;9.50;99.90;;;;;;5079558;28;20531;-59
2022/01/08 13:11:14;;;;;;;3.63;1.58;;;9.50;99.90;;;;;;5080167;28;20136;-59
2022/01/08 13:13:43;;;;;;;3.70;1.92;;;9.50;99.90;;;;;;5077898;28;20162;-57
2022/01/08 13:16:31;;;;;;;3.65;2.22;;;9.50;99.90;;;;;;5079894;28;20467;-59
2022/01/08 13:19:06;;;;;;;2.58;1.23;;;9.50;99.90;;;;;;5079112;28;20135;-59
2022/01/08 13:21:34;;;;;;;2.65;1.10;;;9.50;99.90;;;;;;5077544;28;20067;-56
2022/01/08 13:24:15;;;;;;;2.35;0.70;;;9.50;99.90;;;;;;5078195;28;20534;-55
2022/01/08 13:26:42;;;;;;;1.25;0.77;;;9.50;99.90;;;;;;5079159;28;20539;-57
2022/01/08 13:29:22;;;;;;;2.55;0.70;;;9.50;99.90;;;;;;5077581;28;20094;-59
2022/01/08 13:31:51;;;;;;;2.72;1.17;;;9.50;99.90;;;;;;5078632;28;20075;-58